Terminal Aerodrome Forecast
Issued by NWS Charleston, WV

Current Version | Previous Version | Graphics & Text | Print | Product List | Glossary On
Versions: 1 2 3 4 5 6 7 8 9 10 11 12 13 14 15 16 17 18 19 20 21 22 23 24 25 26 27 28 29 30
000
FTUS41 KRLX 231829 AAA
TAFCRW
TAF AMD
KCRW 231829Z 2318/2418 20005KT P6SM BKN035
      TEMPO 2318/2321 BKN025
     FM240000 00000KT P6SM BKN080
     FM240100 00000KT P6SM SCT080
     FM241500 18006KT P6SM FEW200=

USA.gov is the U.S. government's official web portal to all federal, state and local government web resources and services.